createdAt,value
2022-08-14T00:02:31.464Z,99.90
2022-08-14T00:05:00.573Z,99.90
2022-08-14T00:07:30.752Z,99.90
2022-08-14T00:10:50.475Z,99.90
2022-08-14T00:12:56.371Z,99.90
2022-08-14T00:15:37.304Z,99.90
2022-08-14T00:18:30.611Z,99.90
2022-08-14T00:21:04.993Z,99.90
2022-08-14T00:23:43.235Z,99.90
2022-08-14T00:26:22.037Z,99.90
2022-08-14T00:28:52.095Z,99.90
2022-08-14T00:31:34.999Z,99.90
2022-08-14T00:34:36.372Z,99.90
2022-08-14T00:36:59.527Z,99.90
2022-08-14T00:39:32.106Z,99.90
2022-08-14T00:42:02.180Z,99.90
2022-08-14T00:44:32.443Z,99.90
2022-08-14T00:47:03.567Z,99.90
2022-08-14T00:49:37.931Z,99.90
2022-08-14T00:52:07.847Z,99.90
2022-08-14T00:54:38.974Z,99.90
2022-08-14T00:57:09.488Z,99.90
2022-08-14T00:59:38.272Z,99.90
2022-08-14T01:02:09.518Z,99.90
2022-08-14T01:04:53.334Z,99.90
2022-08-14T01:07:27.360Z,99.90
2022-08-14T01:10:01.880Z,99.90
2022-08-14T01:12:31.751Z,99.90
2022-08-14T01:15:03.533Z,99.90
2022-08-14T01:17:51.948Z,99.90
2022-08-14T01:20:41.135Z,99.90
2022-08-14T01:23:18.806Z,99.90
2022-08-14T01:25:51.091Z,99.90
2022-08-14T01:28:34.184Z,99.90
2022-08-14T01:31:15.651Z,99.90
2022-08-14T01:34:00.058Z,99.90
2022-08-14T01:36:38.940Z,99.90
2022-08-14T01:39:13.422Z,99.90
2022-08-14T01:41:44.270Z,99.90
2022-08-14T01:44:33.531Z,99.90
2022-08-14T01:47:21.353Z,99.90
2022-08-14T01:50:01.381Z,99.90
2022-08-14T01:52:59.754Z,99.90
2022-08-14T01:55:29.424Z,99.90
2022-08-14T01:58:18.135Z,99.90
2022-08-14T02:00:54.408Z,99.90
2022-08-14T02:03:29.627Z,99.90
2022-08-14T02:06:31.864Z,99.90
2022-08-14T02:08:52.958Z,99.90
2022-08-14T02:11:27.142Z,99.90
2022-08-14T02:14:07.097Z,99.90
2022-08-14T02:16:40.439Z,99.90
2022-08-14T02:19:15.132Z,99.90
2022-08-14T02:21:48.821Z,99.90
2022-08-14T02:24:39.593Z,99.90
2022-08-14T02:28:25.074Z,99.90
2022-08-14T02:30:02.752Z,99.90
2022-08-14T02:32:44.584Z,99.90
2022-08-14T02:35:18.096Z,99.90
2022-08-14T02:37:49.467Z,99.90
2022-08-14T02:40:20.767Z,99.90
2022-08-14T02:43:03.927Z,99.90
2022-08-14T02:45:38.894Z,99.90
2022-08-14T02:49:04.320Z,99.90
2022-08-14T02:51:09.119Z,99.90
2022-08-14T02:53:44.339Z,99.90
2022-08-14T02:56:30.496Z,99.90
2022-08-14T02:59:09.649Z,99.90
2022-08-14T03:01:43.735Z,99.90
2022-08-14T03:04:20.172Z,99.90
2022-08-14T03:07:06.620Z,99.90
2022-08-14T03:10:26.164Z,99.90
2022-08-14T03:12:32.846Z,99.90
2022-08-14T03:15:14.329Z,99.90
2022-08-14T03:17:57.596Z,99.90
2022-08-14T03:20:29.188Z,99.90
2022-08-14T03:23:03.189Z,99.90
2022-08-14T03:25:37.368Z,99.90
2022-08-14T03:28:14.909Z,99.90
2022-08-14T03:31:00.122Z,99.90
2022-08-14T03:33:37.437Z,99.90
2022-08-14T03:37:38.387Z,99.90
2022-08-14T03:39:15.410Z,99.90
2022-08-14T03:41:52.572Z,99.90
2022-08-14T03:45:18.932Z,99.90
2022-08-14T03:47:12.254Z,99.90
2022-08-14T03:49:50.231Z,99.90
2022-08-14T03:52:38.794Z,99.90
2022-08-14T03:55:12.527Z,99.90
2022-08-14T03:57:42.793Z,99.90
2022-08-14T04:00:43.349Z,99.90
2022-08-14T04:03:07.037Z,99.90
2022-08-14T04:05:43.253Z,99.90
2022-08-14T04:08:29.278Z,99.90
2022-08-14T04:11:02.012Z,99.90
2022-08-14T04:13:34.852Z,99.90
2022-08-14T04:16:06.776Z,99.90
2022-08-14T04:18:43.815Z,99.90
2022-08-14T04:21:14.876Z,99.90
2022-08-14T04:23:56.976Z,99.90
2022-08-14T04:26:42.452Z,99.90
2022-08-14T04:29:15.071Z,99.90
2022-08-14T04:33:02.567Z,99.90
2022-08-14T04:34:35.268Z,99.90
2022-08-14T04:37:24.889Z,99.90
2022-08-14T04:40:13.620Z,99.90
2022-08-14T04:43:01.398Z,99.90
2022-08-14T04:45:37.360Z,99.90
2022-08-14T04:48:39.746Z,99.90
2022-08-14T04:51:08.346Z,99.90
2022-08-14T04:53:43.649Z,99.90
2022-08-14T04:56:31.712Z,99.90
2022-08-14T04:59:10.349Z,99.90
2022-08-14T05:01:49.127Z,99.90
2022-08-14T05:04:21.640Z,99.90
2022-08-14T05:06:55.379Z,99.90
2022-08-14T05:09:29.072Z,99.90
2022-08-14T05:13:01.014Z,99.90
2022-08-14T05:14:55.218Z,99.90
2022-08-14T05:17:28.979Z,99.90
2022-08-14T05:21:56.333Z,99.90
2022-08-14T05:23:03.752Z,99.90
2022-08-14T05:25:33.732Z,99.90
2022-08-14T05:28:16.160Z,99.90
2022-08-14T05:30:46.432Z,99.90
2022-08-14T05:33:16.308Z,99.90
2022-08-14T05:35:46.583Z,99.90
2022-08-14T05:38:22.560Z,99.90
2022-08-14T05:40:59.855Z,99.90
2022-08-14T05:43:40.910Z,99.90
2022-08-14T05:46:15.085Z,99.90
2022-08-14T05:48:44.191Z,99.90
2022-08-14T05:51:14.298Z,99.90
2022-08-14T05:54:01.828Z,99.90
2022-08-14T05:56:37.092Z,99.90
2022-08-14T05:59:07.208Z,99.90
2022-08-14T06:01:36.526Z,99.90
2022-08-14T06:04:05.931Z,99.40
2022-08-14T06:06:38.380Z,98.10
2022-08-14T06:09:09.907Z,97.40
2022-08-14T06:11:39.220Z,96.50
2022-08-14T06:14:12.400Z,95.70
2022-08-14T06:16:51.990Z,94.90
2022-08-14T06:19:23.364Z,94.20
2022-08-14T06:21:59.266Z,93.60
2022-08-14T06:24:35.652Z,92.70
2022-08-14T06:27:06.078Z,91.60
2022-08-14T06:29:40.025Z,91.00
2022-08-14T06:32:37.574Z,90.00
2022-08-14T06:35:02.915Z,89.00
2022-08-14T06:37:45.232Z,87.80
2022-08-14T06:40:26.980Z,86.10
2022-08-14T06:43:00.398Z,84.00
2022-08-14T06:45:32.739Z,81.80
2022-08-14T06:48:06.061Z,79.80
2022-08-14T06:50:41.757Z,77.70
2022-08-14T06:53:14.694Z,75.80
2022-08-14T06:55:59.563Z,74.30
2022-08-14T06:58:32.365Z,72.80
2022-08-14T07:01:26.704Z,71.20
2022-08-14T07:04:22.730Z,69.60
2022-08-14T07:06:54.898Z,69.00
2022-08-14T07:09:24.462Z,67.80
2022-08-14T07:11:54.587Z,67.00
2022-08-14T07:14:25.100Z,66.50
2022-08-14T07:16:55.345Z,65.50
2022-08-14T07:19:24.995Z,65.30
2022-08-14T07:21:53.665Z,64.40
2022-08-14T07:24:31.057Z,64.10
2022-08-14T07:27:01.902Z,63.20
2022-08-14T07:29:30.987Z,62.50
2022-08-14T07:31:59.707Z,61.60
2022-08-14T07:34:40.644Z,60.80
2022-08-14T07:37:10.749Z,61.00
2022-08-14T07:39:39.632Z,60.30
2022-08-14T07:42:14.293Z,60.60
2022-08-14T07:44:50.524Z,62.60
2022-08-14T07:47:20.741Z,64.30
2022-08-14T07:50:02.350Z,66.10
2022-08-14T07:52:32.095Z,66.90
2022-08-14T07:55:02.508Z,66.80
2022-08-14T07:57:34.674Z,66.80
2022-08-14T08:00:04.056Z,67.40
2022-08-14T08:02:33.406Z,68.70
2022-08-14T08:05:05.514Z,70.20
2022-08-14T08:07:35.067Z,71.40
2022-08-14T08:10:46.248Z,72.30
2022-08-14T08:13:24.406Z,72.90
2022-08-14T08:15:57.421Z,73.50
2022-08-14T08:18:29.432Z,74.00
2022-08-14T08:21:00.250Z,74.60
2022-08-14T08:23:40.137Z,75.30
2022-08-14T08:26:10.074Z,75.20
2022-08-14T08:28:43.700Z,74.30
2022-08-14T08:31:13.848Z,74.70
2022-08-14T08:33:49.569Z,74.90
2022-08-14T08:36:19.170Z,74.40
2022-08-14T08:39:17.928Z,74.10
2022-08-14T08:41:45.174Z,73.00
2022-08-14T08:44:31.914Z,70.80
2022-08-14T08:47:06.207Z,69.40
2022-08-14T08:49:52.808Z,69.20
2022-08-14T08:52:31.764Z,69.90
2022-08-14T08:55:04.577Z,69.40
2022-08-14T08:57:37.500Z,68.10
2022-08-14T09:00:25.887Z,67.00
2022-08-14T09:02:58.605Z,65.90
2022-08-14T09:05:28.933Z,65.40
2022-08-14T09:08:30.577Z,63.90
2022-08-14T09:11:19.324Z,63.30
2022-08-14T09:13:53.241Z,63.30
2022-08-14T09:16:26.315Z,64.50
2022-08-14T09:18:56.059Z,66.50
2022-08-14T09:21:31.499Z,68.30
2022-08-14T09:24:28.020Z,69.50
2022-08-14T09:26:50.984Z,69.80
2022-08-14T09:29:23.415Z,70.80
2022-08-14T09:31:58.320Z,71.10
2022-08-14T09:34:58.711Z,71.20
2022-08-14T09:37:43.826Z,70.40
2022-08-14T09:40:29.433Z,68.70
2022-08-14T09:43:22.411Z,66.20
2022-08-14T09:45:53.867Z,65.90
2022-08-14T09:48:30.165Z,66.20
2022-08-14T09:54:19.208Z,65.60
2022-08-14T09:56:45.730Z,65.20
2022-08-14T09:59:17.737Z,64.50
2022-08-14T10:01:52.621Z,64.00
2022-08-14T10:04:34.711Z,62.60
2022-08-14T10:07:05.731Z,63.30
2022-08-14T10:09:35.395Z,63.40
2022-08-14T10:12:13.453Z,62.70
2022-08-14T10:14:53.364Z,63.10
2022-08-14T10:17:27.553Z,62.80
2022-08-14T10:20:03.159Z,63.00
2022-08-14T10:23:15.552Z,63.10
2022-08-14T10:25:22.807Z,63.60
2022-08-14T10:28:00.062Z,64.90
2022-08-14T10:30:37.885Z,65.50
2022-08-14T10:33:07.090Z,66.60
2022-08-14T10:35:48.020Z,66.20
2022-08-14T10:38:32.397Z,63.90
2022-08-14T10:41:13.527Z,61.90
2022-08-14T10:43:45.084Z,61.40
2022-08-14T10:47:37.991Z,61.80
2022-08-14T10:49:17.817Z,62.30
2022-08-14T10:52:06.396Z,63.80
2022-08-14T10:54:40.185Z,64.10
2022-08-14T10:57:21.933Z,65.00
2022-08-14T10:59:56.051Z,65.10
2022-08-14T11:02:45.312Z,64.70
2022-08-14T11:05:23.602Z,64.30
2022-08-14T11:08:02.149Z,63.30
2022-08-14T11:10:47.139Z,64.00
2022-08-14T11:13:24.155Z,64.00
2022-08-14T11:15:53.688Z,64.50
2022-08-14T11:18:36.012Z,64.90
2022-08-14T11:21:10.603Z,65.00
2022-08-14T11:23:44.132Z,64.30
2022-08-14T11:26:16.661Z,64.00
2022-08-14T11:28:49.790Z,63.80
2022-08-14T11:31:23.829Z,63.60
2022-08-14T11:33:58.270Z,62.50
2022-08-14T11:36:35.184Z,61.50
2022-08-14T11:39:34.495Z,61.10
2022-08-14T11:42:55.475Z,60.50
2022-08-14T11:45:00.826Z,60.40
2022-08-14T11:47:35.667Z,60.30
2022-08-14T11:50:33.433Z,60.20
2022-08-14T11:53:05.063Z,60.30
2022-08-14T11:55:39.886Z,59.80
2022-08-14T11:58:11.371Z,60.00
2022-08-14T12:00:54.724Z,60.70
2022-08-14T12:03:37.852Z,61.20
2022-08-14T12:06:27.811Z,61.30
2022-08-14T12:09:01.508Z,62.00
2022-08-14T12:11:44.235Z,62.40
2022-08-14T12:14:31.066Z,63.20
2022-08-14T12:17:12.454Z,63.40
2022-08-14T12:19:50.866Z,63.40
2022-08-14T12:22:35.610Z,63.10
2022-08-14T12:25:11.128Z,62.90
2022-08-14T12:27:52.936Z,63.10
2022-08-14T12:30:39.778Z,62.90
2022-08-14T12:33:30.644Z,63.10
2022-08-14T12:36:05.788Z,62.50
2022-08-14T12:38:41.397Z,61.50
2022-08-14T12:41:16.423Z,61.30
2022-08-14T12:43:56.523Z,60.70
2022-08-14T12:46:31.729Z,60.30
2022-08-14T12:49:04.553Z,59.70
2022-08-14T12:51:33.965Z,58.80
2022-08-14T12:54:27.721Z,58.70
2022-08-14T12:57:07.305Z,58.70
2022-08-14T12:59:43.213Z,58.50
2022-08-14T13:02:26.314Z,58.40
2022-08-14T13:04:58.102Z,58.40
2022-08-14T13:07:32.105Z,58.80
2022-08-14T13:10:12.735Z,59.60
2022-08-14T13:13:12.988Z,60.20
2022-08-14T13:15:46.539Z,59.60
2022-08-14T13:18:18.549Z,60.50
2022-08-14T13:20:57.690Z,61.60
2022-08-14T13:23:33.359Z,62.50
2022-08-14T13:26:06.014Z,63.10
2022-08-14T13:29:01.379Z,63.60
2022-08-14T13:31:35.480Z,63.80
2022-08-14T13:34:05.725Z,64.60
2022-08-14T13:36:54.151Z,63.30
2022-08-14T13:39:29.771Z,63.50
2022-08-14T13:41:59.247Z,64.50
2022-08-14T13:44:28.797Z,62.30
2022-08-14T13:46:59.596Z,63.60
2022-08-14T13:49:29.086Z,62.20
2022-08-14T13:52:02.413Z,62.10
2022-08-14T13:54:35.598Z,60.80
2022-08-14T13:57:06.090Z,60.20
2022-08-14T13:59:37.971Z,60.70
2022-08-14T14:02:10.037Z,63.60
2022-08-14T14:04:43.078Z,64.50
2022-08-14T14:07:21.823Z,64.80
2022-08-14T14:09:57.592Z,63.30
2022-08-14T14:12:37.510Z,63.00
2022-08-14T14:15:14.664Z,62.50
2022-08-14T14:17:48.584Z,61.60
2022-08-14T14:20:35.148Z,61.80
2022-08-14T14:23:09.483Z,60.10
2022-08-14T14:25:51.140Z,59.40
2022-08-14T14:28:32.290Z,59.30
2022-08-14T14:31:06.989Z,59.00
2022-08-14T14:33:46.818Z,58.70
2022-08-14T14:36:21.954Z,58.40
2022-08-14T14:38:56.074Z,58.10
2022-08-14T14:41:37.721Z,57.60
2022-08-14T14:44:13.620Z,57.20
2022-08-14T14:46:49.731Z,56.80
2022-08-14T14:49:42.031Z,56.70
2022-08-14T14:52:23.195Z,57.50
2022-08-14T14:54:56.894Z,57.80
2022-08-14T14:57:35.658Z,57.40
2022-08-14T15:00:12.912Z,57.60
2022-08-14T15:02:44.279Z,57.40
2022-08-14T15:05:17.644Z,57.10
2022-08-14T15:07:51.247Z,57.00
2022-08-14T15:10:26.866Z,57.40
2022-08-14T15:13:04.149Z,57.70
2022-08-14T15:15:37.199Z,58.10
2022-08-14T15:18:35.771Z,58.70
2022-08-14T15:21:01.340Z,58.90
2022-08-14T15:23:43.613Z,59.60
2022-08-14T15:26:31.062Z,59.60
2022-08-14T15:29:05.639Z,60.10
2022-08-14T15:31:37.109Z,61.60
2022-08-14T15:34:43.402Z,62.40
2022-08-14T15:37:05.833Z,62.60
2022-08-14T15:39:35.701Z,62.50
2022-08-14T15:42:15.999Z,62.80
2022-08-14T15:44:58.047Z,63.10
2022-08-14T15:47:32.303Z,63.90
2022-08-14T15:50:05.168Z,64.00
2022-08-14T15:52:38.580Z,64.50
2022-08-14T15:55:13.085Z,64.10
2022-08-14T15:57:51.365Z,64.30
2022-08-14T16:00:51.603Z,64.10
2022-08-14T16:03:27.832Z,63.60
2022-08-14T16:06:04.923Z,62.60
2022-08-14T16:08:36.251Z,61.40
2022-08-14T16:11:09.911Z,60.90
2022-08-14T16:13:43.085Z,60.10
2022-08-14T16:16:34.828Z,60.00
2022-08-14T16:19:11.073Z,59.50
2022-08-14T16:22:01.640Z,59.30
2022-08-14T16:25:02.014Z,58.80
2022-08-14T16:27:37.071Z,58.70
2022-08-14T16:30:11.418Z,61.10
2022-08-14T16:32:55.582Z,61.50
2022-08-14T16:35:42.984Z,61.30
2022-08-14T16:38:44.855Z,61.10
2022-08-14T16:41:26.538Z,61.10
2022-08-14T16:44:01.353Z,61.80
2022-08-14T16:46:34.863Z,59.90
2022-08-14T16:49:07.092Z,61.40
2022-08-14T16:51:38.535Z,61.30
2022-08-14T16:54:20.906Z,61.50
2022-08-14T16:57:20.936Z,61.40
2022-08-14T16:59:52.315Z,62.50
2022-08-14T17:02:37.122Z,63.40
2022-08-14T17:05:22.232Z,64.20
2022-08-14T17:08:32.488Z,65.00
2022-08-14T17:11:10.656Z,65.00
2022-08-14T17:13:58.719Z,64.50
2022-08-14T17:16:37.444Z,65.30
2022-08-14T17:19:09.988Z,65.80
2022-08-14T17:21:46.937Z,66.30
2022-08-14T17:24:56.934Z,67.10
2022-08-14T17:27:09.128Z,68.30
2022-08-14T17:29:44.692Z,68.30
2022-08-14T17:32:44.403Z,69.20
2022-08-14T17:35:57.419Z,69.80
2022-08-14T17:41:33.030Z,70.10
2022-08-14T17:44:21.974Z,70.40
2022-08-14T17:47:06.603Z,70.60
2022-08-14T17:49:40.528Z,71.50
2022-08-14T17:52:18.192Z,71.60
2022-08-14T17:54:52.890Z,71.90
2022-08-14T17:57:35.584Z,72.50
2022-08-14T18:00:14.642Z,72.70
2022-08-14T18:02:50.479Z,73.50
2022-08-14T18:05:23.631Z,73.00
2022-08-14T18:08:33.720Z,72.60
2022-08-14T18:11:02.563Z,72.00
2022-08-14T18:13:51.400Z,71.90
2022-08-14T18:16:22.699Z,72.00
2022-08-14T18:18:53.295Z,72.00
2022-08-14T18:21:41.442Z,72.70
2022-08-14T18:24:20.146Z,73.60
2022-08-14T18:27:08.926Z,74.30
2022-08-14T18:29:54.717Z,75.00
2022-08-14T18:32:46.246Z,75.60
2022-08-14T18:35:21.048Z,76.30
2022-08-14T18:37:56.079Z,77.70
2022-08-14T18:40:34.923Z,78.30
2022-08-14T18:43:07.582Z,78.70
2022-08-14T18:46:00.787Z,79.20
2022-08-14T18:48:50.190Z,80.00
2022-08-14T18:51:45.120Z,80.30
2022-08-14T18:54:34.304Z,81.20
2022-08-14T18:57:05.658Z,82.10
2022-08-14T18:59:43.254Z,82.50
2022-08-14T19:02:43.890Z,84.10
2022-08-14T19:05:13.527Z,84.20
2022-08-14T19:07:48.329Z,84.10
2022-08-14T19:10:37.621Z,85.30
2022-08-14T19:13:13.091Z,84.80
2022-08-14T19:15:55.972Z,85.00
2022-08-14T19:18:30.366Z,86.00
2022-08-14T19:21:24.064Z,86.50
2022-08-14T19:24:27.213Z,86.90
2022-08-14T19:27:23.579Z,86.40
2022-08-14T19:30:24.273Z,87.30
2022-08-14T19:33:02.524Z,87.50
2022-08-14T19:35:59.777Z,87.90
2022-08-14T19:38:54.343Z,89.00
2022-08-14T19:41:34.463Z,89.60
2022-08-14T19:44:15.678Z,90.10
2022-08-14T19:47:01.307Z,90.20
2022-08-14T19:50:24.938Z,90.60
2022-08-14T19:52:38.813Z,91.20
2022-08-14T19:55:17.259Z,91.80
2022-08-14T19:57:58.368Z,91.50
2022-08-14T20:00:30.335Z,91.60
2022-08-14T20:03:10.915Z,91.80
2022-08-14T20:05:45.330Z,92.20
2022-08-14T20:10:59.555Z,92.90
2022-08-14T20:11:20.727Z,93.10
2022-08-14T20:14:01.733Z,93.80
2022-08-14T20:16:37.542Z,93.40
2022-08-14T20:19:16.221Z,93.50
2022-08-14T20:22:04.388Z,93.90
2022-08-14T20:24:41.104Z,94.50
2022-08-14T20:27:33.857Z,94.00
2022-08-14T20:30:29.910Z,93.60
2022-08-14T20:33:07.792Z,93.30
2022-08-14T20:35:44.469Z,93.10
2022-08-14T20:38:30.895Z,93.10
2022-08-14T20:41:06.932Z,92.90
2022-08-14T20:43:59.725Z,93.00
2022-08-14T20:46:39.001Z,92.90
2022-08-14T20:49:11.990Z,92.70
2022-08-14T20:51:54.697Z,92.60
2022-08-14T20:54:34.628Z,92.60
2022-08-14T20:57:12.020Z,92.70
2022-08-14T20:59:44.946Z,92.60
2022-08-14T21:02:46.688Z,92.60
2022-08-14T21:05:34.099Z,93.30
2022-08-14T21:08:10.179Z,94.00
2022-08-14T21:10:55.113Z,94.50
2022-08-14T21:14:20.437Z,95.20
2022-08-14T21:16:32.907Z,95.60
2022-08-14T21:19:05.190Z,96.10
2022-08-14T21:21:40.763Z,96.70
2022-08-14T21:24:22.834Z,97.50
2022-08-14T21:27:12.702Z,97.30
2022-08-14T21:29:54.975Z,98.10
2022-08-14T21:32:47.018Z,98.80
2022-08-14T21:35:23.028Z,99.10
2022-08-14T21:37:53.903Z,99.70
2022-08-14T21:40:42.328Z,99.90
2022-08-14T21:43:19.503Z,99.90
2022-08-14T21:45:53.109Z,99.90
2022-08-14T21:48:26.173Z,99.90
2022-08-14T21:51:52.487Z,99.90
2022-08-14T21:53:58.349Z,99.90
2022-08-14T21:56:38.536Z,99.90
2022-08-14T21:59:17.674Z,99.90
2022-08-14T22:02:00.928Z,99.90
2022-08-14T22:04:40.789Z,99.90
2022-08-14T22:07:17.093Z,99.90
2022-08-14T22:09:54.669Z,99.90
2022-08-14T22:12:58.737Z,99.90
2022-08-14T22:15:18.087Z,99.90
2022-08-14T22:17:52.205Z,99.90
2022-08-14T22:20:28.700Z,99.90
2022-08-14T22:23:02.990Z,99.90
2022-08-14T22:25:34.030Z,99.90
2022-08-14T22:28:05.941Z,99.90
2022-08-14T22:30:37.029Z,99.90
2022-08-14T22:33:06.972Z,99.90
2022-08-14T22:35:39.480Z,99.90
2022-08-14T22:38:36.100Z,99.90
2022-08-14T22:41:25.494Z,99.90
2022-08-14T22:43:53.378Z,99.90
2022-08-14T22:46:23.792Z,99.90
2022-08-14T22:48:53.306Z,99.90
2022-08-14T22:51:27.532Z,99.90
2022-08-14T22:53:59.383Z,99.90
2022-08-14T22:56:30.788Z,99.90
2022-08-14T22:59:02.440Z,99.90
2022-08-14T23:01:56.468Z,99.90
2022-08-14T23:04:34.324Z,99.90
2022-08-14T23:07:21.915Z,99.90
2022-08-14T23:09:57.673Z,99.90
2022-08-14T23:12:34.891Z,99.90
2022-08-14T23:15:06.129Z,99.90
2022-08-14T23:17:40.275Z,99.90
2022-08-14T23:20:18.939Z,99.90
2022-08-14T23:22:53.051Z,99.90
2022-08-14T23:25:56.693Z,99.90
2022-08-14T23:28:34.127Z,99.90
2022-08-14T23:31:11.923Z,99.90
2022-08-14T23:33:53.171Z,99.90
2022-08-14T23:36:32.681Z,99.90
2022-08-14T23:39:12.223Z,99.90
2022-08-14T23:41:53.717Z,99.90
2022-08-14T23:44:24.594Z,99.90
2022-08-14T23:47:03.262Z,99.90
2022-08-14T23:49:57.054Z,99.90
2022-08-14T23:52:55.760Z,99.90
2022-08-14T23:55:12.276Z,99.90
2022-08-14T23:57:57.792Z,99.90
